Terminal Aerodrome Forecast
Issued by NWS

Home | Current Version | Previous Version | Text Only | Print | Product List | Glossary On
Versions: 1 2 3 4 5 6 7 8 9 10 11 12 13 14 15 16 17 18 19 20 21
582
FTAK31 PAJN 291726
TAFASI
TAF
PASI 291726Z 2918/3018 VRB03KT P6SM OVC010
     FM291900 23006KT P6SM VCSH FEW015 OVC050
     FM300900 VRB04KT P6SM BKN015 OVC050=

USA.gov is the U.S. government's official web portal to all federal, state and local government web resources and services.